Time;durP1;ratioP1;P1;durP2;ratioP2;P2;SDS_P1;SDS_P2;PMS_P1;PMS_P2;Temp;Humidity;BMP_temperature;BMP_pressure;BME280_temperature;BME280_humidity;BME280_pressure;Samples;Min_cycle;Max_cycle;Signal;HPM_P1;HPM_P2
2022/04/10 05:00:12;;;;;;;7.77;5.97;;;3.90;97.20;;;;;;1707312;29;20241;-71
2022/04/10 05:01:03;;;;;;;6.35;5.75;;;3.90;97.20;;;;;;1707289;29;20261;-72
2022/04/10 05:01:55;;;;;;;5.80;5.30;;;3.90;97.20;;;;;;1707497;29;20226;-71
2022/04/10 05:02:46;;;;;;;7.13;5.93;;;3.90;97.20;;;;;;1707433;29;20541;-71
2022/04/10 05:03:38;;;;;;;7.10;5.90;;;3.90;97.20;;;;;;1707469;29;20194;-72
2022/04/10 05:04:29;;;;;;;5.70;5.20;;;3.90;97.20;;;;;;1707324;29;20264;-71
2022/04/10 05:05:20;;;;;;;6.83;6.07;;;3.90;97.20;;;;;;1707493;28;20227;-71
2022/04/10 05:06:11;;;;;;;6.95;5.60;;;4.00;97.20;;;;;;1707260;29;20476;-72
2022/04/10 05:07:03;;;;;;;6.30;5.70;;;4.00;97.20;;;;;;1707318;29;20206;-71
2022/04/10 05:07:54;;;;;;;6.43;5.70;;;4.00;97.20;;;;;;1707351;28;20237;-71
2022/04/10 05:08:46;;;;;;;8.90;8.00;;;4.00;97.20;;;;;;1706987;28;20198;-72
2022/04/10 05:09:37;;;;;;;9.40;8.40;;;4.00;97.20;;;;;;1707159;28;20210;-71
2022/04/10 05:10:29;;;;;;;9.63;8.60;;;4.00;97.20;;;;;;1707239;29;20210;-71
2022/04/10 05:11:19;;;;;;;9.07;7.93;;;4.00;97.20;;;;;;1707174;29;20214;-71
2022/04/10 05:12:11;;;;;;;9.43;7.50;;;4.00;97.20;;;;;;1706380;28;20202;-71
2022/04/10 05:13:06;;;;;;;10.10;6.90;;;4.00;97.20;;;;;;1700740;29;20717;-71
2022/04/10 05:13:58;;;;;;;7.75;7.05;;;4.00;97.20;;;;;;1700603;29;20201;-71
2022/04/10 05:14:48;;;;;;;7.82;6.60;;;4.00;97.20;;;;;;1700555;29;20259;-71
2022/04/10 05:15:41;;;;;;;7.13;6.33;;;4.00;97.20;;;;;;1700716;29;20203;-71
2022/04/10 05:16:32;;;;;;;7.07;6.38;;;4.10;97.20;;;;;;1700646;29;20242;-71
2022/04/10 05:17:26;;;;;;;8.50;7.00;;;4.10;97.20;;;;;;1700733;29;20213;-71
2022/04/10 05:18:19;;;;;;;7.03;6.15;;;4.10;97.20;;;;;;1700294;29;20203;-71
2022/04/10 05:19:10;;;;;;;7.30;6.32;;;4.10;97.20;;;;;;1700695;29;20282;-71
2022/04/10 05:20:02;;;;;;;7.00;6.30;;;4.10;97.20;;;;;;1700656;29;20249;-71
2022/04/10 05:20:54;;;;;;;7.32;6.63;;;4.10;97.20;;;;;;1700620;29;20195;-72
2022/04/10 05:21:45;;;;;;;6.57;5.97;;;4.10;97.20;;;;;;1700597;29;20290;-71
2022/04/10 05:22:37;;;;;;;6.82;6.22;;;4.10;97.20;;;;;;1700646;29;20207;-71
2022/04/10 05:23:28;;;;;;;8.10;6.13;;;4.10;97.20;;;;;;1700631;29;20218;-71
2022/04/10 05:24:20;;;;;;;7.97;6.55;;;4.10;97.20;;;;;;1700550;29;20227;-71
2022/04/10 05:25:11;;;;;;;7.32;6.32;;;4.10;97.20;;;;;;1700559;29;20678;-71
2022/04/10 05:26:02;;;;;;;6.73;6.13;;;4.10;97.20;;;;;;1700717;29;20546;-72
2022/04/10 05:26:53;;;;;;;8.52;6.55;;;4.10;97.20;;;;;;1700527;29;20227;-72
2022/04/10 05:27:45;;;;;;;6.57;6.03;;;4.10;97.20;;;;;;1700634;29;20211;-71
2022/04/10 05:28:36;;;;;;;7.38;6.15;;;4.20;97.20;;;;;;1700324;29;20234;-71
2022/04/10 05:29:27;;;;;;;5.97;5.47;;;4.20;97.20;;;;;;1706231;29;20206;-71
2022/04/10 05:30:18;;;;;;;6.68;5.95;;;4.20;97.20;;;;;;1707213;28;20239;-71
2022/04/10 05:31:11;;;;;;;7.37;6.77;;;4.20;97.20;;;;;;1707168;28;20210;-71
2022/04/10 05:32:02;;;;;;;6.43;5.45;;;4.20;97.20;;;;;;1707293;28;20199;-72
2022/04/10 05:32:54;;;;;;;6.40;5.85;;;4.30;97.20;;;;;;1707223;28;20198;-72
2022/04/10 05:33:46;;;;;;;7.35;6.32;;;4.30;97.20;;;;;;1707131;28;20211;-71
2022/04/10 05:34:37;;;;;;;7.30;6.10;;;4.30;97.20;;;;;;1707092;28;20265;-71
2022/04/10 05:35:28;;;;;;;6.77;5.90;;;4.30;97.20;;;;;;1707162;28;20206;-71
2022/04/10 05:36:19;;;;;;;8.23;7.35;;;4.30;97.20;;;;;;1707252;28;20449;-71
2022/04/10 05:37:11;;;;;;;6.80;6.17;;;4.30;97.20;;;;;;1707195;28;20198;-71
2022/04/10 05:38:02;;;;;;;6.30;5.68;;;4.30;97.20;;;;;;1706963;28;20199;-72
2022/04/10 05:38:54;;;;;;;6.68;5.50;;;4.30;97.20;;;;;;1707185;28;20688;-72
2022/04/10 05:39:45;;;;;;;7.18;6.47;;;4.30;97.20;;;;;;1707189;28;20213;-71
2022/04/10 05:40:36;;;;;;;7.23;5.80;;;4.40;97.20;;;;;;1707159;28;20213;-71
2022/04/10 05:41:27;;;;;;;6.90;6.30;;;4.40;97.20;;;;;;1707212;28;20221;-72
2022/04/10 05:42:19;;;;;;;6.63;6.00;;;4.40;97.20;;;;;;1707187;28;20275;-72
2022/04/10 05:43:09;;;;;;;6.07;5.57;;;4.40;97.20;;;;;;1707149;28;20712;-72
2022/04/10 05:44:01;;;;;;;6.80;6.20;;;4.50;97.20;;;;;;1707202;28;20608;-71
2022/04/10 05:44:52;;;;;;;7.88;7.18;;;4.50;97.20;;;;;;1707119;28;20206;-72
2022/04/10 05:45:43;;;;;;;8.53;6.73;;;4.50;97.20;;;;;;1707239;28;20206;-71
2022/04/10 05:46:38;;;;;;;7.50;6.80;;;4.50;97.20;;;;;;1706841;28;20206;-71
2022/04/10 05:47:30;;;;;;;7.78;6.97;;;4.60;97.20;;;;;;1707126;28;20616;-72
2022/04/10 05:48:21;;;;;;;10.13;6.25;;;4.60;97.20;;;;;;1706863;28;20210;-72
2022/04/10 05:49:13;;;;;;;7.70;6.63;;;4.60;97.20;;;;;;1707088;28;20199;-72
2022/04/10 05:50:05;;;;;;;7.30;6.55;;;4.60;97.20;;;;;;1707252;28;20237;-72
2022/04/10 05:50:56;;;;;;;6.60;6.00;;;4.60;97.20;;;;;;1707183;28;20198;-72
2022/04/10 05:51:50;;;;;;;7.90;7.00;;;4.60;97.20;;;;;;1707160;28;20211;-71
2022/04/10 05:52:44;;;;;;;6.68;5.95;;;4.70;97.20;;;;;;1707273;28;20211;-72
2022/04/10 05:53:35;;;;;;;7.20;5.78;;;4.70;97.20;;;;;;1707187;28;20210;-72
2022/04/10 05:54:26;;;;;;;6.60;6.00;;;4.70;97.20;;;;;;1707140;28;20222;-72
2022/04/10 05:55:18;;;;;;;6.10;5.60;;;4.70;97.20;;;;;;1707244;28;20217;-71
2022/04/10 05:56:10;;;;;;;6.50;5.90;;;4.70;97.20;;;;;;1707119;28;20218;-72
2022/04/10 05:57:00;;;;;;;7.47;5.80;;;4.70;97.20;;;;;;1707114;28;20297;-72
2022/04/10 05:57:52;;;;;;;7.07;6.53;;;4.70;97.20;;;;;;1707073;28;20205;-71
2022/04/10 05:58:43;;;;;;;6.57;6.07;;;4.80;97.20;;;;;;1706870;28;20234;-72
2022/04/10 05:59:34;;;;;;;6.80;6.07;;;4.80;97.20;;;;;;1707137;28;20213;-71
2022/04/10 06:00:25;;;;;;;6.63;5.88;;;4.80;97.20;;;;;;1707242;28;20256;-71
2022/04/10 06:01:17;;;;;;;6.43;5.90;;;4.80;97.20;;;;;;1707088;28;20221;-72
2022/04/10 06:02:09;;;;;;;6.53;5.93;;;4.90;97.20;;;;;;1707126;28;20651;-71
2022/04/10 06:03:03;;;;;;;6.10;5.50;;;4.90;97.20;;;;;;1706966;28;20218;-72
2022/04/10 06:03:54;;;;;;;6.53;6.00;;;5.00;97.20;;;;;;1707090;28;20219;-72
2022/04/10 06:04:45;;;;;;;6.07;5.47;;;5.00;97.20;;;;;;1707144;28;20218;-71
2022/04/10 06:05:36;;;;;;;6.53;5.88;;;5.00;97.20;;;;;;1707077;28;20294;-72
2022/04/10 06:06:28;;;;;;;7.23;6.43;;;5.10;97.20;;;;;;1707131;28;20210;-71
2022/04/10 06:07:18;;;;;;;7.18;5.45;;;5.10;97.20;;;;;;1707027;28;20265;-71
2022/04/10 06:08:10;;;;;;;6.93;6.00;;;5.10;97.20;;;;;;1706772;28;20209;-71
2022/04/10 06:09:01;;;;;;;6.78;6.07;;;5.20;97.20;;;;;;1707138;28;20221;-72
2022/04/10 06:09:52;;;;;;;6.57;6.07;;;5.20;97.20;;;;;;1707042;28;20289;-72
2022/04/10 06:10:43;;;;;;;8.13;7.32;;;5.20;97.20;;;;;;1707121;28;20214;-72
2022/04/10 06:11:35;;;;;;;6.70;6.03;;;5.20;97.20;;;;;;1707070;28;20207;-72
2022/04/10 06:12:26;;;;;;;7.40;6.70;;;5.30;97.20;;;;;;1707267;28;20487;-72
2022/04/10 06:13:18;;;;;;;6.90;6.20;;;5.30;97.20;;;;;;1707022;28;20289;-72
2022/04/10 06:14:09;;;;;;;7.00;6.30;;;5.30;97.20;;;;;;1706932;28;20202;-71
2022/04/10 06:15:00;;;;;;;6.37;5.73;;;5.40;97.20;;;;;;1707128;28;20203;-72
2022/04/10 06:15:51;;;;;;;7.18;6.47;;;5.40;97.20;;;;;;1707059;28;20529;-71
2022/04/10 06:16:43;;;;;;;7.07;6.43;;;5.40;97.20;;;;;;1707147;28;20199;-72
2022/04/10 06:17:35;;;;;;;6.95;5.60;;;5.50;97.20;;;;;;1707066;28;20704;-72
2022/04/10 06:18:26;;;;;;;7.00;6.30;;;5.50;97.20;;;;;;1706807;28;20574;-71
2022/04/10 06:19:18;;;;;;;7.65;6.95;;;5.60;97.20;;;;;;1706705;28;20638;-71
2022/04/10 06:20:11;;;;;;;7.50;6.90;;;5.60;97.20;;;;;;1706827;28;20285;-72
2022/04/10 06:21:02;;;;;;;6.70;6.00;;;5.70;97.20;;;;;;1707227;28;20686;-71
2022/04/10 06:21:54;;;;;;;7.20;6.50;;;5.70;97.20;;;;;;1706862;28;20610;-72
2022/04/10 06:22:44;;;;;;;7.50;6.80;;;5.80;97.20;;;;;;1707043;28;20238;-71
2022/04/10 06:23:36;;;;;;;8.30;6.57;;;5.80;97.20;;;;;;1707004;28;20218;-72
2022/04/10 06:24:27;;;;;;;7.22;6.50;;;5.90;97.20;;;;;;1707652;28;20229;-72
2022/04/10 06:25:19;;;;;;;7.47;6.67;;;5.90;97.20;;;;;;1708409;28;20205;-72
2022/04/10 06:26:09;;;;;;;7.10;6.45;;;6.00;97.20;;;;;;1708185;28;20482;-72
2022/04/10 06:27:01;;;;;;;6.93;6.33;;;6.00;97.20;;;;;;1708347;28;20198;-71
2022/04/10 06:27:52;;;;;;;9.15;8.25;;;6.10;97.20;;;;;;1708239;28;20247;-72
2022/04/10 06:28:43;;;;;;;8.63;7.50;;;6.10;97.20;;;;;;1707977;28;20202;-72
2022/04/10 06:29:34;;;;;;;8.45;7.68;;;6.20;97.20;;;;;;1708160;28;20218;-71
2022/04/10 06:30:26;;;;;;;8.87;8.07;;;6.20;97.20;;;;;;1708210;28;20209;-72
2022/04/10 06:31:17;;;;;;;8.43;7.53;;;6.20;97.20;;;;;;1708209;28;20259;-71
2022/04/10 06:32:08;;;;;;;10.03;8.03;;;6.30;97.20;;;;;;1708079;29;20206;-71
2022/04/10 06:33:00;;;;;;;8.38;7.40;;;6.30;97.20;;;;;;1708266;28;20213;-72
2022/04/10 06:33:54;;;;;;;6.78;6.10;;;6.30;97.20;;;;;;1708141;28;20206;-71
2022/04/10 06:34:44;;;;;;;7.40;6.65;;;6.30;97.20;;;;;;1708138;28;20249;-72
2022/04/10 06:35:36;;;;;;;6.70;6.00;;;6.40;97.20;;;;;;1708191;28;20199;-72
2022/04/10 06:36:27;;;;;;;8.25;5.32;;;6.40;97.20;;;;;;1707982;28;20233;-71
2022/04/10 06:37:19;;;;;;;7.40;6.70;;;6.40;97.20;;;;;;1708227;28;20650;-71
2022/04/10 06:38:09;;;;;;;7.60;6.90;;;6.40;97.20;;;;;;1707825;28;20243;-72
2022/04/10 06:39:01;;;;;;;6.80;6.20;;;6.40;97.20;;;;;;1708215;28;20431;-72
2022/04/10 06:39:52;;;;;;;6.63;5.90;;;6.50;97.20;;;;;;1708078;28;20230;-72
2022/04/10 06:40:45;;;;;;;6.27;5.60;;;6.60;97.20;;;;;;1708230;28;20688;-71
2022/04/10 06:41:36;;;;;;;6.60;5.95;;;6.60;97.20;;;;;;1708183;28;20210;-71
2022/04/10 06:42:28;;;;;;;7.10;5.90;;;6.70;97.20;;;;;;1708163;28;20203;-71
2022/04/10 06:43:20;;;;;;;6.72;5.32;;;6.70;97.20;;;;;;1708141;28;20249;-72
2022/04/10 06:44:11;;;;;;;7.18;6.20;;;6.70;97.20;;;;;;1708087;28;20658;-72
2022/04/10 06:45:03;;;;;;;6.97;5.70;;;6.70;97.20;;;;;;1708227;28;20210;-71
2022/04/10 06:45:54;;;;;;;6.63;5.57;;;6.70;97.20;;;;;;1708080;28;20198;-72
2022/04/10 06:46:45;;;;;;;8.70;5.68;;;6.80;97.20;;;;;;1708071;28;20249;-71
2022/04/10 06:47:37;;;;;;;6.00;5.47;;;6.80;97.20;;;;;;1708021;28;20238;-72
2022/04/10 06:48:29;;;;;;;5.90;5.35;;;6.90;97.20;;;;;;1707676;28;20454;-71
2022/04/10 06:49:22;;;;;;;6.18;5.47;;;6.90;97.20;;;;;;1708045;28;20225;-72
2022/04/10 06:50:13;;;;;;;6.00;5.50;;;6.90;97.20;;;;;;1708071;28;20207;-71
2022/04/10 06:51:05;;;;;;;7.50;6.35;;;7.00;97.20;;;;;;1708153;28;20654;-72
2022/04/10 06:51:55;;;;;;;6.13;5.47;;;7.10;97.20;;;;;;1708046;28;20644;-71
2022/04/10 06:52:47;;;;;;;7.23;4.97;;;7.10;97.20;;;;;;1708063;28;20221;-72
2022/04/10 06:53:38;;;;;;;5.72;5.20;;;7.20;97.20;;;;;;1707851;28;20640;-71
2022/04/10 06:54:29;;;;;;;8.07;6.43;;;7.20;97.20;;;;;;1708090;28;20591;-72
2022/04/10 06:55:20;;;;;;;6.07;5.45;;;7.20;97.20;;;;;;1708083;28;20202;-71
2022/04/10 06:56:12;;;;;;;6.83;5.80;;;7.30;97.20;;;;;;1708043;28;20205;-71
2022/04/10 06:57:03;;;;;;;6.72;5.88;;;7.30;97.20;;;;;;1708150;28;20199;-72
2022/04/10 06:57:54;;;;;;;6.60;5.45;;;7.30;97.20;;;;;;1708000;28;20199;-72
2022/04/10 06:58:45;;;;;;;6.30;5.70;;;7.40;97.20;;;;;;1707742;28;20206;-71
2022/04/10 06:59:37;;;;;;;8.53;6.40;;;7.40;97.20;;;;;;1707965;28;20199;-72
2022/04/10 07:00:27;;;;;;;6.68;5.80;;;7.50;97.20;;;;;;1707966;28;20206;-72
2022/04/10 07:01:19;;;;;;;6.90;6.20;;;7.50;97.20;;;;;;1708076;28;20198;-72
2022/04/10 07:02:10;;;;;;;6.65;6.03;;;7.50;97.20;;;;;;1708114;28;20237;-72
2022/04/10 07:03:02;;;;;;;6.80;5.73;;;7.60;97.20;;;;;;1708230;28;20227;-71
2022/04/10 07:03:54;;;;;;;6.60;6.00;;;7.60;97.20;;;;;;1708281;28;20572;-72
2022/04/10 07:04:47;;;;;;;7.28;5.57;;;7.70;97.20;;;;;;1707964;28;20226;-72
2022/04/10 07:05:39;;;;;;;6.32;5.72;;;7.70;97.20;;;;;;1708067;28;20207;-72
2022/04/10 07:06:31;;;;;;;5.93;5.43;;;7.80;97.20;;;;;;1708015;28;20678;-72
2022/04/10 07:07:21;;;;;;;8.52;5.70;;;7.90;97.20;;;;;;1707950;28;20717;-72
2022/04/10 07:08:13;;;;;;;6.43;5.50;;;7.90;97.20;;;;;;1707612;28;20560;-72
2022/04/10 07:09:04;;;;;;;6.40;5.82;;;7.90;97.20;;;;;;1707951;28;20554;-71
2022/04/10 07:09:56;;;;;;;9.83;5.43;;;8.00;97.20;;;;;;1707615;28;20202;-71
2022/04/10 07:10:47;;;;;;;5.65;5.15;;;8.00;97.20;;;;;;1707944;28;20670;-71
2022/04/10 07:11:38;;;;;;;5.60;5.10;;;8.10;97.20;;;;;;1708026;28;20722;-72
2022/04/10 07:12:29;;;;;;;5.57;5.00;;;8.20;97.20;;;;;;1707885;28;20203;-71
2022/04/10 07:13:22;;;;;;;6.20;5.60;;;8.20;97.20;;;;;;1708041;28;20199;-71
2022/04/10 07:14:13;;;;;;;5.97;5.38;;;8.30;97.20;;;;;;1707819;28;20261;-72
2022/04/10 07:15:06;;;;;;;8.53;5.60;;;8.30;97.20;;;;;;1708214;28;20202;-71
2022/04/10 07:15:57;;;;;;;6.30;5.70;;;8.40;97.20;;;;;;1708144;28;20246;-72
2022/04/10 07:16:48;;;;;;;5.30;4.90;;;8.40;97.20;;;;;;1707898;28;20202;-72
2022/04/10 07:17:39;;;;;;;5.53;5.00;;;8.50;97.20;;;;;;1707877;28;20209;-71
2022/04/10 07:18:31;;;;;;;6.50;4.93;;;8.50;97.20;;;;;;1707742;28;20301;-73
2022/04/10 07:19:23;;;;;;;5.25;4.75;;;8.50;97.20;;;;;;1707968;28;20644;-73
2022/04/10 07:20:14;;;;;;;5.50;5.00;;;8.60;97.20;;;;;;1707876;28;20581;-73
2022/04/10 07:21:05;;;;;;;6.18;5.32;;;8.60;97.20;;;;;;1707918;28;20206;-73
2022/04/10 07:24:15;;;;;;;10.35;6.65;;;8.80;97.20;;;;;;1707942;28;20717;-73
2022/04/10 07:25:07;;;;;;;6.32;5.00;;;8.90;97.20;;;;;;1707440;29;20235;-73
2022/04/10 07:25:58;;;;;;;5.82;5.20;;;8.90;97.20;;;;;;1707722;28;20201;-73
2022/04/10 07:26:52;;;;;;;6.22;5.20;;;9.00;97.20;;;;;;1707876;28;20206;-73
2022/04/10 07:27:44;;;;;;;6.10;5.50;;;9.00;97.20;;;;;;1707776;28;20710;-73
2022/04/10 07:28:35;;;;;;;5.50;5.00;;;9.10;97.20;;;;;;1707545;28;20206;-73
2022/04/10 07:29:26;;;;;;;5.75;4.97;;;9.10;97.20;;;;;;1707815;28;20212;-73
2022/04/10 07:30:17;;;;;;;6.03;5.43;;;9.20;97.20;;;;;;1707821;28;20573;-73
2022/04/10 07:31:10;;;;;;;7.60;5.00;;;9.20;97.20;;;;;;1707926;28;20579;-73
2022/04/10 07:32:00;;;;;;;6.95;5.35;;;9.30;97.20;;;;;;1707885;28;20667;-74
2022/04/10 07:32:53;;;;;;;5.47;5.00;;;9.30;97.20;;;;;;1707792;28;20595;-73
2022/04/10 07:33:44;;;;;;;7.35;5.50;;;9.40;97.20;;;;;;1707804;28;20242;-73
2022/04/10 07:34:37;;;;;;;5.90;5.40;;;9.40;97.20;;;;;;1707708;28;20228;-74
2022/04/10 07:35:28;;;;;;;5.80;5.28;;;9.50;97.20;;;;;;1707377;28;20237;-73
2022/04/10 07:36:20;;;;;;;5.40;4.90;;;9.60;97.20;;;;;;1707895;28;20206;-73
2022/04/10 07:37:10;;;;;;;6.20;5.60;;;9.60;97.20;;;;;;1707547;28;20588;-73
2022/04/10 07:38:03;;;;;;;6.27;5.40;;;9.70;97.20;;;;;;1705516;28;20195;-73
2022/04/10 07:38:54;;;;;;;5.50;5.00;;;9.70;97.20;;;;;;1707712;28;20202;-74
2022/04/10 07:39:45;;;;;;;6.30;5.70;;;9.80;97.20;;;;;;1707555;29;20203;-73
2022/04/10 07:40:38;;;;;;;6.15;5.55;;;9.90;97.20;;;;;;1707685;29;20447;-73
2022/04/10 07:41:29;;;;;;;5.70;5.20;;;9.90;97.20;;;;;;1707761;29;20210;-73
2022/04/10 07:42:20;;;;;;;8.23;5.80;;;10.00;97.20;;;;;;1707706;29;20230;-73
2022/04/10 07:43:12;;;;;;;6.13;5.17;;;10.10;97.20;;;;;;1707600;29;20208;-72
2022/04/10 07:44:03;;;;;;;5.65;5.18;;;10.20;97.20;;;;;;1707527;28;20451;-71
2022/04/10 07:44:59;;;;;;;6.00;5.25;;;10.30;97.20;;;;;;1707552;29;20208;-71
2022/04/10 07:48:08;;;;;;;5.20;4.72;;;10.50;97.20;;;;;;1707625;29;20205;-71
2022/04/10 07:49:00;;;;;;;6.22;5.45;;;10.50;97.20;;;;;;1707816;29;20680;-72
2022/04/10 07:49:53;;;;;;;5.85;5.32;;;10.60;97.20;;;;;;1707616;29;20207;-70
2022/04/10 07:50:44;;;;;;;5.93;4.97;;;10.70;97.20;;;;;;1707772;29;20221;-71
2022/04/10 07:51:35;;;;;;;5.80;5.25;;;10.70;97.20;;;;;;1707800;29;20237;-71
2022/04/10 07:52:27;;;;;;;5.50;5.00;;;10.80;97.20;;;;;;1707709;29;20680;-71
2022/04/10 07:53:18;;;;;;;5.00;4.60;;;10.80;97.20;;;;;;1707639;29;20331;-71
2022/04/10 07:54:11;;;;;;;5.90;5.00;;;10.80;97.20;;;;;;1707578;28;20282;-71
2022/04/10 07:55:02;;;;;;;5.97;5.47;;;10.80;97.20;;;;;;1707712;29;20662;-72
2022/04/10 07:55:53;;;;;;;6.00;5.00;;;10.90;97.20;;;;;;1707558;29;20641;-72
2022/04/10 07:56:44;;;;;;;5.45;4.95;;;10.90;97.20;;;;;;1707625;29;20237;-73
2022/04/10 07:57:36;;;;;;;6.68;5.95;;;11.00;97.20;;;;;;1707604;29;20206;-73
2022/04/10 07:58:27;;;;;;;7.10;5.75;;;11.00;97.20;;;;;;1707260;29;20240;-73
2022/04/10 07:59:18;;;;;;;5.73;4.70;;;11.10;97.20;;;;;;1707601;29;20199;-72
2022/04/10 08:00:11;;;;;;;5.93;5.07;;;11.10;97.20;;;;;;1707648;29;20206;-73
2022/04/10 08:01:02;;;;;;;5.80;5.20;;;11.20;97.20;;;;;;1707583;29;20274;-72
2022/04/10 08:01:53;;;;;;;5.20;4.80;;;11.30;97.20;;;;;;1707540;29;20692;-72
2022/04/10 08:02:47;;;;;;;6.77;5.10;;;11.30;97.20;;;;;;1707599;29;20603;-73
2022/04/10 08:03:38;;;;;;;7.40;4.70;;;11.40;97.20;;;;;;1707699;28;20269;-72
2022/04/10 08:04:29;;;;;;;5.80;5.07;;;11.50;97.20;;;;;;1707601;28;20273;-72
2022/04/10 08:05:21;;;;;;;6.32;4.60;;;11.50;97.20;;;;;;1707617;29;20576;-72
2022/04/10 08:06:13;;;;;;;6.82;4.90;;;11.60;97.20;;;;;;1707664;28;20206;-75
2022/04/10 08:07:04;;;;;;;5.13;4.63;;;11.60;97.20;;;;;;1707582;29;20206;-75
2022/04/10 08:07:56;;;;;;;5.32;4.82;;;11.80;97.20;;;;;;1707444;29;20356;-74
2022/04/10 08:08:47;;;;;;;5.25;4.75;;;11.90;97.20;;;;;;1707188;29;20213;-74
2022/04/10 08:09:38;;;;;;;4.97;4.57;;;12.10;97.20;;;;;;1707586;29;20208;-74
2022/04/10 08:10:29;;;;;;;5.78;4.85;;;12.20;97.20;;;;;;1707548;29;20879;-74
2022/04/10 08:11:21;;;;;;;5.77;4.57;;;12.30;97.20;;;;;;1707656;29;20572;-74
2022/04/10 08:12:12;;;;;;;6.32;4.97;;;12.40;97.20;;;;;;1707471;29;20729;-75
2022/04/10 08:13:04;;;;;;;5.13;4.72;;;12.60;97.20;;;;;;1707546;29;20576;-74
2022/04/10 08:13:54;;;;;;;5.55;4.97;;;12.70;97.20;;;;;;1707460;29;20237;-75
2022/04/10 08:14:48;;;;;;;4.63;4.23;;;12.80;97.20;;;;;;1707364;28;20242;-77
2022/04/10 08:15:39;;;;;;;5.20;4.70;;;12.90;97.20;;;;;;1707448;29;20209;-74
2022/04/10 08:16:30;;;;;;;5.10;4.60;;;13.00;97.20;;;;;;1707457;29;20221;-74
2022/04/10 08:17:21;;;;;;;5.00;4.30;;;13.10;97.20;;;;;;1707499;29;20582;-74
2022/04/10 08:18:13;;;;;;;4.20;3.80;;;13.20;97.20;;;;;;1707369;29;20565;-79
2022/04/10 08:19:04;;;;;;;5.10;4.60;;;13.20;97.20;;;;;;1707596;29;21027;-75
2022/04/10 08:19:55;;;;;;;4.90;4.37;;;13.20;97.20;;;;;;1707552;29;20198;-78
2022/04/10 08:20:49;;;;;;;5.53;4.95;;;13.20;97.20;;;;;;1707499;29;20685;-75
2022/04/10 08:21:41;;;;;;;6.05;4.35;;;13.20;97.20;;;;;;1707561;29;20211;-75
2022/04/10 08:22:33;;;;;;;4.40;4.00;;;13.30;97.20;;;;;;1707526;29;20218;-75
2022/04/10 08:23:24;;;;;;;4.97;4.47;;;13.40;97.20;;;;;;1707565;28;20259;-74
2022/04/10 08:24:16;;;;;;;5.32;3.90;;;13.50;97.20;;;;;;1707413;28;20692;-74
2022/04/10 08:25:09;;;;;;;5.05;4.30;;;13.70;97.20;;;;;;1707478;29;20305;-74
2022/04/10 08:26:01;;;;;;;6.93;3.90;;;13.80;97.20;;;;;;1707534;29;20206;-75
2022/04/10 08:26:52;;;;;;;4.18;3.67;;;13.90;97.20;;;;;;1707412;29;20241;-74
2022/04/10 08:27:43;;;;;;;5.07;4.20;;;14.10;97.20;;;;;;1707450;28;20202;-74
2022/04/10 08:28:35;;;;;;;4.82;4.32;;;14.10;97.20;;;;;;1707161;29;20206;-75
2022/04/10 08:29:26;;;;;;;5.70;4.13;;;14.20;97.20;;;;;;1707314;29;20642;-74
2022/04/10 08:30:17;;;;;;;5.18;3.50;;;14.20;97.20;;;;;;1707474;29;20245;-75
2022/04/10 08:31:09;;;;;;;4.32;3.90;;;14.20;97.20;;;;;;1707402;28;20198;-74
2022/04/10 08:32:00;;;;;;;4.80;3.97;;;14.20;97.20;;;;;;1707514;29;20280;-74
2022/04/10 08:32:51;;;;;;;6.90;4.30;;;14.20;97.20;;;;;;1707404;28;20674;-75
2022/04/10 08:33:42;;;;;;;4.20;3.80;;;14.20;97.20;;;;;;1707401;29;20242;-74
2022/04/10 08:34:34;;;;;;;4.03;3.57;;;14.20;97.20;;;;;;1707321;28;20226;-74
2022/04/10 08:35:25;;;;;;;5.72;4.55;;;14.20;97.20;;;;;;1707441;29;20597;-75
2022/04/10 08:36:18;;;;;;;4.23;3.93;;;14.10;97.20;;;;;;1707462;29;20202;-75
2022/04/10 08:37:08;;;;;;;5.40;4.15;;;14.10;97.20;;;;;;1707422;29;20202;-75
2022/04/10 08:38:00;;;;;;;4.80;3.77;;;14.10;97.20;;;;;;1707501;28;20190;-75
2022/04/10 08:38:51;;;;;;;4.07;3.70;;;14.10;97.20;;;;;;1707327;29;20210;-75
2022/04/10 08:39:43;;;;;;;6.37;4.27;;;14.20;97.20;;;;;;1707428;28;20301;-74
2022/04/10 08:40:34;;;;;;;3.80;3.38;;;14.20;97.20;;;;;;1707297;29;20256;-74
2022/04/10 08:41:31;;;;;;;4.70;3.60;;;14.30;97.20;;;;;;1707447;29;20216;-75
2022/04/10 08:42:22;;;;;;;5.10;3.60;;;14.40;97.20;;;;;;1707569;28;20640;-74
2022/04/10 08:43:14;;;;;;;4.20;3.53;;;14.60;97.20;;;;;;1707524;29;20632;-75
2022/04/10 08:44:05;;;;;;;4.45;2.80;;;14.70;97.20;;;;;;1707495;28;20206;-74
2022/04/10 08:44:57;;;;;;;6.25;3.70;;;14.80;97.20;;;;;;1707608;29;20209;-74
2022/04/10 08:45:48;;;;;;;4.15;3.58;;;14.80;97.20;;;;;;1707568;29;20233;-74
2022/04/10 08:46:40;;;;;;;4.30;3.67;;;14.80;97.20;;;;;;1707187;28;20214;-75
2022/04/10 08:47:31;;;;;;;4.47;3.53;;;14.70;97.20;;;;;;1707024;29;20243;-75
2022/04/10 08:48:24;;;;;;;4.87;3.33;;;14.60;97.20;;;;;;1706969;29;20717;-75
2022/04/10 08:49:16;;;;;;;3.88;3.33;;;14.60;97.20;;;;;;1707285;28;20446;-75
2022/04/10 08:50:09;;;;;;;4.15;3.78;;;14.50;97.20;;;;;;1707326;29;20725;-75
2022/04/10 08:51:01;;;;;;;3.63;3.33;;;14.50;97.20;;;;;;1707276;29;20234;-75
2022/04/10 08:51:54;;;;;;;4.60;3.63;;;14.50;97.20;;;;;;1707300;28;20613;-75
2022/04/10 08:52:45;;;;;;;4.85;3.35;;;14.50;97.20;;;;;;1707259;29;20245;-76
2022/04/10 08:53:37;;;;;;;5.77;3.33;;;14.40;97.20;;;;;;1707256;28;20210;-75
2022/04/10 08:54:28;;;;;;;5.47;3.78;;;14.30;97.20;;;;;;1707195;28;20476;-75
2022/04/10 08:55:20;;;;;;;3.70;3.33;;;14.30;97.20;;;;;;1707281;29;20201;-74
2022/04/10 08:56:11;;;;;;;4.45;3.78;;;14.20;97.20;;;;;;1707271;29;20966;-74
2022/04/10 08:57:03;;;;;;;5.83;3.47;;;14.10;97.20;;;;;;1707326;29;20194;-75
2022/04/10 08:57:53;;;;;;;3.67;3.33;;;14.10;97.20;;;;;;1707184;29;20202;-75
2022/04/10 08:58:45;;;;;;;3.40;3.10;;;14.10;97.20;;;;;;1707004;28;20285;-75
2022/04/10 08:59:36;;;;;;;4.82;3.45;;;14.10;97.20;;;;;;1707202;29;20230;-74
2022/04/10 09:00:28;;;;;;;3.50;2.80;;;14.00;97.20;;;;;;1707259;29;20597;-75
2022/04/10 09:01:22;;;;;;;5.40;3.55;;;14.00;97.20;;;;;;1707314;29;20245;-75
2022/04/10 09:02:13;;;;;;;4.35;3.28;;;14.00;97.20;;;;;;1707149;28;20199;-75
2022/04/10 09:03:04;;;;;;;4.55;3.65;;;14.00;97.20;;;;;;1707330;29;20697;-74
2022/04/10 09:03:56;;;;;;;7.47;3.30;;;13.90;97.20;;;;;;1707192;28;20578;-75
2022/04/10 09:04:47;;;;;;;3.70;3.20;;;14.00;97.20;;;;;;1707187;28;20266;-74
2022/04/10 09:05:40;;;;;;;6.20;3.83;;;14.00;97.20;;;;;;1707237;28;20202;-75
2022/04/10 09:06:31;;;;;;;4.28;3.40;;;13.90;97.20;;;;;;1707205;29;20807;-75
2022/04/10 09:07:24;;;;;;;4.20;3.00;;;13.90;97.20;;;;;;1707387;29;20733;-74
2022/04/10 09:08:17;;;;;;;6.55;3.72;;;13.90;97.20;;;;;;1706321;29;20238;-72
2022/04/10 09:09:12;;;;;;;5.88;3.25;;;13.90;97.20;;;;;;1706689;29;20199;-76
2022/04/10 09:10:03;;;;;;;6.40;3.60;;;14.00;97.20;;;;;;1707258;29;20255;-75
2022/04/10 09:10:57;;;;;;;3.60;3.30;;;14.10;97.20;;;;;;1707230;29;20237;-74
2022/04/10 09:11:51;;;;;;;4.65;3.05;;;14.10;97.20;;;;;;1706738;28;20270;-74
2022/04/10 09:12:45;;;;;;;4.57;3.72;;;14.00;97.20;;;;;;1706837;29;20525;-75
2022/04/10 09:13:39;;;;;;;7.25;3.58;;;13.90;97.20;;;;;;1704466;29;20265;-74
2022/04/10 09:14:35;;;;;;;5.53;3.47;;;13.80;97.20;;;;;;1706495;28;20254;-74
2022/04/10 09:15:32;;;;;;;3.33;2.95;;;13.70;97.20;;;;;;1707023;29;20249;-74
2022/04/10 09:16:24;;;;;;;3.20;2.85;;;13.50;97.20;;;;;;1706928;28;20207;-74
2022/04/10 09:17:16;;;;;;;4.45;3.30;;;13.30;97.20;;;;;;1706876;29;20221;-77
2022/04/10 09:18:08;;;;;;;4.65;3.40;;;13.20;97.20;;;;;;1700299;29;20207;-74
2022/04/10 09:19:01;;;;;;;4.10;3.25;;;13.10;97.20;;;;;;1700525;29;20207;-74
2022/04/10 09:19:54;;;;;;;2.92;2.63;;;12.90;97.20;;;;;;1700513;29;20575;-75
2022/04/10 09:21:06;;;;;;;6.75;3.65;;;12.80;97.20;;;;;;1700537;29;20218;-75
2022/04/10 09:21:57;;;;;;;4.85;3.30;;;12.60;97.20;;;;;;1700438;29;20234;-75
2022/04/10 09:22:49;;;;;;;3.75;3.42;;;12.50;97.20;;;;;;1700510;29;20217;-76
2022/04/10 09:23:44;;;;;;;4.55;3.65;;;12.50;97.20;;;;;;1700588;29;20667;-75
2022/04/10 09:24:36;;;;;;;4.18;3.50;;;12.50;97.20;;;;;;1700553;29;20282;-75
2022/04/10 09:25:27;;;;;;;5.22;4.07;;;12.60;97.20;;;;;;1700528;29;20669;-75
2022/04/10 09:26:19;;;;;;;5.30;3.93;;;12.80;97.20;;;;;;1705270;29;20547;-74
2022/04/10 09:27:11;;;;;;;8.85;3.85;;;13.20;97.20;;;;;;1706967;29;20485;-74
2022/04/10 09:28:01;;;;;;;4.20;3.30;;;13.60;97.20;;;;;;1706315;29;20230;-74
2022/04/10 09:28:54;;;;;;;3.70;3.20;;;14.10;97.20;;;;;;1705781;29;20203;-74
2022/04/10 09:29:50;;;;;;;4.43;3.13;;;14.60;97.20;;;;;;1706021;29;20233;-74
2022/04/10 09:30:41;;;;;;;5.15;3.30;;;15.20;97.20;;;;;;1706598;29;20191;-75
2022/04/10 09:31:34;;;;;;;4.05;3.03;;;15.60;95.90;;;;;;1706558;29;20882;-75
2022/04/10 09:32:41;;;;;;;4.70;3.22;;;15.90;94.90;;;;;;1704738;29;20199;-75
2022/04/10 09:33:48;;;;;;;4.03;2.90;;;16.10;93.70;;;;;;1706930;29;20223;-74
2022/04/10 09:34:39;;;;;;;4.45;3.70;;;16.20;91.10;;;;;;1705089;29;20564;-75
2022/04/10 09:35:42;;;;;;;3.30;3.00;;;16.10;91.50;;;;;;1706858;29;20246;-74
2022/04/10 09:36:40;;;;;;;5.03;3.10;;;16.20;92.00;;;;;;1705404;29;20195;-75